createdAt,value
2023-05-10T00:00:23.304Z,97.10
2023-05-10T00:02:40.764Z,96.62
2023-05-10T00:04:58.062Z,97.97
2023-05-10T00:07:15.352Z,97.18
2023-05-10T00:09:33.008Z,97.79
2023-05-10T00:11:50.318Z,98.17
2023-05-10T00:14:07.322Z,98.31
2023-05-10T00:16:24.671Z,98.97
2023-05-10T00:18:41.934Z,98.82
2023-05-10T00:20:59.257Z,96.86
2023-05-10T00:23:16.809Z,97.27
2023-05-10T00:25:33.758Z,98.93
2023-05-10T00:27:50.764Z,98.49
2023-05-10T00:30:07.918Z,98.25
2023-05-10T00:32:25.299Z,98.48
2023-05-10T00:34:42.582Z,97.38
2023-05-10T00:37:00.316Z,98.51
2023-05-10T00:39:17.561Z,99.45
2023-05-10T00:41:34.530Z,99.60
2023-05-10T00:43:51.875Z,98.41
2023-05-10T00:46:09.133Z,99.24
2023-05-10T00:48:27.419Z,99.28
2023-05-10T00:50:45.040Z,97.48
2023-05-10T00:53:03.275Z,98.54
2023-05-10T00:55:20.495Z,97.98
2023-05-10T00:57:37.775Z,99.52
2023-05-10T00:59:54.676Z,98.98
2023-05-10T01:02:11.797Z,98.93
2023-05-10T01:04:29.076Z,99.45
2023-05-10T01:06:46.312Z,99.22
2023-05-10T01:09:03.325Z,97.81
2023-05-10T01:11:21.301Z,97.76
2023-05-10T01:13:38.541Z,99.58
2023-05-10T01:15:55.793Z,99.83
2023-05-10T01:18:13.478Z,98.13
2023-05-10T01:20:30.804Z,99.91
2023-05-10T01:22:48.048Z,98.76
2023-05-10T01:25:05.984Z,100.00
2023-05-10T01:27:23.298Z,99.83
2023-05-10T01:29:40.686Z,98.40
2023-05-10T01:31:58.027Z,99.91
2023-05-10T01:34:15.410Z,99.76
2023-05-10T01:36:33.987Z,99.16
2023-05-10T01:38:51.327Z,99.50
2023-05-10T01:41:08.421Z,98.37
2023-05-10T01:43:26.138Z,99.75
2023-05-10T01:45:44.397Z,99.93
2023-05-10T01:48:02.674Z,99.43
2023-05-10T01:50:20.079Z,98.27
2023-05-10T01:52:37.333Z,99.99
2023-05-10T01:54:54.259Z,99.58
2023-05-10T01:57:12.532Z,98.38
2023-05-10T01:59:29.914Z,98.89
2023-05-10T02:01:47.561Z,96.90
2023-05-10T02:04:04.945Z,98.13
2023-05-10T02:06:22.769Z,97.01
2023-05-10T02:08:40.073Z,98.20
2023-05-10T02:10:59.385Z,96.52
2023-05-10T02:13:16.741Z,97.74
2023-05-10T02:15:35.061Z,97.07
2023-05-10T02:17:52.458Z,97.85
2023-05-10T02:20:10.097Z,97.45
2023-05-10T02:22:28.756Z,97.52
2023-05-10T02:24:46.014Z,98.61
2023-05-10T02:27:04.289Z,98.03
2023-05-10T02:29:22.585Z,97.76
2023-05-10T02:31:39.553Z,98.46
2023-05-10T02:33:56.879Z,97.95
2023-05-10T02:36:14.578Z,97.58
2023-05-10T02:38:31.923Z,97.47
2023-05-10T02:40:49.865Z,97.58
2023-05-10T02:43:07.181Z,98.30
2023-05-10T02:45:24.118Z,99.12
2023-05-10T02:47:41.040Z,98.61
2023-05-10T02:49:58.296Z,98.38
2023-05-10T02:52:15.628Z,97.65
2023-05-10T02:54:33.899Z,99.79
2023-05-10T02:56:51.148Z,98.76
2023-05-10T02:59:09.799Z,99.25
2023-05-10T03:01:27.210Z,97.56
2023-05-10T03:03:44.603Z,97.47
2023-05-10T03:06:02.078Z,97.08
2023-05-10T03:08:19.475Z,97.74
2023-05-10T03:10:37.165Z,97.51
2023-05-10T03:12:55.485Z,98.12
2023-05-10T03:15:13.749Z,96.53
2023-05-10T03:17:32.036Z,98.47
2023-05-10T03:19:49.388Z,98.40
2023-05-10T03:22:06.622Z,96.91
2023-05-10T03:24:23.934Z,96.47
2023-05-10T03:26:41.266Z,97.53
2023-05-10T03:28:58.605Z,98.94
2023-05-10T03:31:16.284Z,98.53
2023-05-10T03:33:33.679Z,98.10
2023-05-10T03:35:51.287Z,99.60
2023-05-10T03:38:08.980Z,98.50
2023-05-10T03:40:25.984Z,99.91
2023-05-10T03:42:43.945Z,98.49
2023-05-10T03:45:01.606Z,99.73
2023-05-10T03:47:18.929Z,98.90
2023-05-10T03:49:36.165Z,99.13
2023-05-10T03:51:53.493Z,98.02
2023-05-10T03:54:10.806Z,98.79
2023-05-10T03:56:27.816Z,97.90
2023-05-10T03:58:45.136Z,97.80
2023-05-10T04:01:02.112Z,97.68
2023-05-10T04:03:20.401Z,97.28
2023-05-10T04:05:37.700Z,97.34
2023-05-10T04:07:54.659Z,97.77
2023-05-10T04:10:11.951Z,97.57
2023-05-10T04:12:29.240Z,98.86
2023-05-10T04:14:47.892Z,98.15
2023-05-10T04:17:05.169Z,98.48
2023-05-10T04:19:22.749Z,96.93
2023-05-10T04:21:40.096Z,97.35
2023-05-10T04:23:57.385Z,98.50
2023-05-10T04:26:15.578Z,98.30
2023-05-10T04:28:33.186Z,98.59
2023-05-10T04:30:50.530Z,98.10
2023-05-10T04:33:08.840Z,99.64
2023-05-10T04:35:26.109Z,98.48
2023-05-10T04:37:43.336Z,99.22
2023-05-10T04:40:00.565Z,98.32
2023-05-10T04:42:17.895Z,98.92
2023-05-10T04:44:35.211Z,99.33
2023-05-10T04:46:52.566Z,98.93
2023-05-10T04:49:09.878Z,99.38
2023-05-10T04:51:26.941Z,98.61
2023-05-10T04:53:48.621Z,98.54
2023-05-10T04:56:15.393Z,98.25
2023-05-10T04:58:32.886Z,99.79
2023-05-10T05:00:49.831Z,98.47
2023-05-10T05:03:07.051Z,99.96
2023-05-10T05:05:24.371Z,99.71
2023-05-10T05:07:41.632Z,100.00
2023-05-10T05:09:58.951Z,98.00
2023-05-10T05:12:16.152Z,99.05
2023-05-10T05:14:33.377Z,98.97
2023-05-10T05:16:50.618Z,99.59
2023-05-10T05:19:07.948Z,98.83
2023-05-10T05:21:25.256Z,98.60
2023-05-10T05:23:42.519Z,98.80
2023-05-10T05:25:59.872Z,98.66
2023-05-10T05:28:17.196Z,100.00
2023-05-10T05:30:34.924Z,99.92
2023-05-10T05:32:53.226Z,98.79
2023-05-10T05:35:10.515Z,99.53
2023-05-10T05:37:28.758Z,98.76
2023-05-10T05:39:45.983Z,97.81
2023-05-10T05:42:04.270Z,98.30
2023-05-10T05:44:21.465Z,97.70
2023-05-10T05:46:38.500Z,97.67
2023-05-10T05:48:55.767Z,97.09
2023-05-10T05:51:12.995Z,97.21
2023-05-10T05:53:30.268Z,97.47
2023-05-10T05:55:47.492Z,97.51
2023-05-10T05:58:05.670Z,97.76
2023-05-10T06:00:22.902Z,96.87
2023-05-10T06:02:40.042Z,97.07
2023-05-10T06:04:57.417Z,95.97
2023-05-10T06:07:14.745Z,95.93
2023-05-10T06:09:32.561Z,96.80
2023-05-10T06:11:49.781Z,96.44
2023-05-10T06:14:07.050Z,95.28
2023-05-10T06:16:24.336Z,96.43
2023-05-10T06:18:41.688Z,95.55
2023-05-10T06:20:59.000Z,95.43
2023-05-10T06:23:15.956Z,95.49
2023-05-10T06:25:33.234Z,94.72
2023-05-10T06:27:53.695Z,94.09
2023-05-10T06:30:13.364Z,94.36
2023-05-10T06:32:31.032Z,91.87
2023-05-10T06:34:48.390Z,91.94
2023-05-10T06:37:06.392Z,92.96
2023-05-10T06:39:23.624Z,93.32
2023-05-10T06:41:40.851Z,92.16
2023-05-10T06:43:58.589Z,91.69
2023-05-10T06:46:15.608Z,89.85
2023-05-10T06:48:32.966Z,91.09
2023-05-10T06:50:50.362Z,89.03
2023-05-10T06:53:07.706Z,86.23
2023-05-10T06:55:24.845Z,85.28
2023-05-10T06:57:44.447Z,86.74
2023-05-10T07:00:01.892Z,83.23
2023-05-10T07:02:19.152Z,79.35
2023-05-10T07:04:36.591Z,78.63
2023-05-10T07:06:55.127Z,80.17
2023-05-10T07:09:12.519Z,79.86
2023-05-10T07:11:30.314Z,79.32
2023-05-10T07:13:47.357Z,79.08
2023-05-10T07:16:05.647Z,79.02
2023-05-10T07:18:24.152Z,79.50
2023-05-10T07:20:41.169Z,80.20
2023-05-10T07:22:58.117Z,77.99
2023-05-10T07:25:15.761Z,76.29
2023-05-10T07:27:33.154Z,73.12
2023-05-10T07:29:51.535Z,75.43
2023-05-10T07:32:10.374Z,75.40
2023-05-10T07:34:30.708Z,74.14
2023-05-10T07:36:49.122Z,76.52
2023-05-10T07:39:06.053Z,76.36
2023-05-10T07:41:24.397Z,75.92
2023-05-10T07:43:41.882Z,75.06
2023-05-10T07:45:59.174Z,75.14
2023-05-10T07:48:16.679Z,74.13
2023-05-10T07:50:35.929Z,74.20
2023-05-10T07:52:53.198Z,74.62
2023-05-10T07:55:10.143Z,72.49
2023-05-10T07:57:27.603Z,73.67
2023-05-10T07:59:44.864Z,73.89
2023-05-10T08:02:02.105Z,74.20
2023-05-10T08:04:20.415Z,73.04
2023-05-10T08:06:37.877Z,74.01
2023-05-10T08:08:54.983Z,73.72
2023-05-10T08:11:12.351Z,72.59
2023-05-10T08:13:29.925Z,72.85
2023-05-10T08:15:48.756Z,72.59
2023-05-10T08:18:06.088Z,70.52
2023-05-10T08:20:23.371Z,70.17
2023-05-10T08:22:40.433Z,70.14
2023-05-10T08:24:59.191Z,71.67
2023-05-10T08:27:16.251Z,70.91
2023-05-10T08:29:46.208Z,68.33
2023-05-10T08:32:07.749Z,68.83
2023-05-10T08:34:25.415Z,68.29
2023-05-10T08:36:43.874Z,67.42
2023-05-10T08:39:01.319Z,68.60
2023-05-10T08:41:19.175Z,69.73
2023-05-10T08:43:38.599Z,70.20
2023-05-10T08:45:55.846Z,69.65
2023-05-10T08:48:15.972Z,70.07
2023-05-10T08:50:33.519Z,69.82
2023-05-10T08:52:51.601Z,70.44
2023-05-10T08:55:09.208Z,70.22
2023-05-10T08:57:30.737Z,70.65
2023-05-10T08:59:48.609Z,69.01
2023-05-10T09:02:05.534Z,71.04
2023-05-10T09:04:22.856Z,70.86
2023-05-10T09:06:42.612Z,70.60
2023-05-10T09:08:59.526Z,71.15
2023-05-10T09:11:16.532Z,68.55
2023-05-10T09:13:33.894Z,69.10
2023-05-10T09:15:51.214Z,69.11
2023-05-10T09:18:08.671Z,69.02
2023-05-10T09:20:25.965Z,68.20
2023-05-10T09:22:43.257Z,66.71
2023-05-10T09:25:00.590Z,67.02
2023-05-10T09:27:17.591Z,70.18
2023-05-10T09:29:34.942Z,66.79
2023-05-10T09:31:52.370Z,67.74
2023-05-10T09:34:10.671Z,68.35
2023-05-10T09:36:27.672Z,67.36
2023-05-10T09:38:45.277Z,67.64
2023-05-10T09:41:02.650Z,67.59
2023-05-10T09:43:19.663Z,65.37
2023-05-10T09:45:38.553Z,64.94
2023-05-10T09:47:56.082Z,68.14
2023-05-10T09:50:13.126Z,67.29
2023-05-10T09:52:30.450Z,63.24
2023-05-10T09:54:47.859Z,64.38
2023-05-10T09:57:06.751Z,62.94
2023-05-10T09:59:24.181Z,64.30
2023-05-10T10:01:41.285Z,62.52
2023-05-10T10:03:58.268Z,62.62
2023-05-10T10:06:26.487Z,63.82
2023-05-10T10:08:47.091Z,66.50
2023-05-10T10:11:05.154Z,66.90
2023-05-10T10:13:22.596Z,67.69
2023-05-10T10:15:40.027Z,68.53
2023-05-10T10:17:57.170Z,71.37
2023-05-10T10:20:14.514Z,71.92
2023-05-10T10:22:31.568Z,73.14
2023-05-10T10:24:48.866Z,73.04
2023-05-10T10:27:06.175Z,75.72
2023-05-10T10:29:23.477Z,77.81
2023-05-10T10:31:40.808Z,79.31
2023-05-10T10:33:58.144Z,81.48
2023-05-10T10:36:15.479Z,80.77
2023-05-10T10:38:32.821Z,80.40
2023-05-10T10:40:50.151Z,81.08
2023-05-10T10:43:07.475Z,80.12
2023-05-10T10:45:24.515Z,77.94
2023-05-10T10:47:41.460Z,80.74
2023-05-10T10:49:58.814Z,77.40
2023-05-10T10:52:16.046Z,79.40
2023-05-10T10:54:34.072Z,80.53
2023-05-10T10:56:51.301Z,75.07
2023-05-10T10:59:08.634Z,76.67
2023-05-10T11:01:26.062Z,73.33
2023-05-10T11:03:43.704Z,70.68
2023-05-10T11:06:01.011Z,70.58
2023-05-10T11:08:18.382Z,72.29
2023-05-10T11:10:36.710Z,71.30
2023-05-10T11:12:54.062Z,69.42
2023-05-10T11:15:11.329Z,67.79
2023-05-10T11:17:28.649Z,65.95
2023-05-10T11:19:45.896Z,64.24
2023-05-10T11:22:03.144Z,63.38
2023-05-10T11:24:20.414Z,65.36
2023-05-10T11:26:37.711Z,67.33
2023-05-10T11:28:55.009Z,65.24
2023-05-10T11:31:12.287Z,66.41
2023-05-10T11:33:29.634Z,63.91
2023-05-10T11:35:47.063Z,62.87
2023-05-10T11:38:04.263Z,63.19
2023-05-10T11:40:21.309Z,62.88
2023-05-10T11:42:38.589Z,63.71
2023-05-10T11:44:56.915Z,60.61
2023-05-10T11:47:14.188Z,58.00
2023-05-10T11:49:31.452Z,58.23
2023-05-10T11:51:49.063Z,58.67
2023-05-10T11:54:07.402Z,59.25
2023-05-10T11:56:24.773Z,59.15
2023-05-10T11:58:42.141Z,61.04
2023-05-10T12:00:59.159Z,57.53
2023-05-10T12:03:17.527Z,56.33
2023-05-10T12:05:35.848Z,57.83
2023-05-10T12:07:53.513Z,56.07
2023-05-10T12:10:10.809Z,57.11
2023-05-10T12:12:27.848Z,55.17
2023-05-10T12:14:46.104Z,55.31
2023-05-10T12:17:03.816Z,55.14
2023-05-10T12:19:21.144Z,55.36
2023-05-10T12:21:38.418Z,55.43
2023-05-10T12:23:55.421Z,53.93
2023-05-10T12:26:12.678Z,57.66
2023-05-10T12:28:29.988Z,57.94
2023-05-10T12:30:47.266Z,57.66
2023-05-10T12:33:04.648Z,57.75
2023-05-10T12:35:21.998Z,57.18
2023-05-10T12:37:39.042Z,52.96
2023-05-10T12:39:57.275Z,55.13
2023-05-10T12:42:14.652Z,50.66
2023-05-10T12:44:32.057Z,53.81
2023-05-10T12:46:49.531Z,51.45
2023-05-10T12:49:09.543Z,52.24
2023-05-10T12:51:27.253Z,54.40
2023-05-10T12:53:46.121Z,52.28
2023-05-10T12:56:04.577Z,50.38
2023-05-10T13:00:45.044Z,52.63
2023-05-10T13:03:02.354Z,51.64
2023-05-10T13:05:19.614Z,51.17
2023-05-10T13:07:36.907Z,52.99
2023-05-10T13:09:54.141Z,52.26
2023-05-10T13:12:11.197Z,51.81
2023-05-10T13:14:28.141Z,49.05
2023-05-10T13:16:46.130Z,52.63
2023-05-10T13:19:03.514Z,53.76
2023-05-10T13:21:20.933Z,51.56
2023-05-10T13:23:38.593Z,50.63
2023-05-10T13:25:55.931Z,49.21
2023-05-10T13:28:13.223Z,51.51
2023-05-10T13:30:30.599Z,49.97
2023-05-10T13:32:47.952Z,48.65
2023-05-10T13:35:05.348Z,49.23
2023-05-10T13:37:22.249Z,49.25
2023-05-10T13:39:39.632Z,47.05
2023-05-10T13:41:56.872Z,47.07
2023-05-10T13:44:14.155Z,46.17
2023-05-10T13:46:31.450Z,46.48
2023-05-10T13:48:48.812Z,44.60
2023-05-10T13:51:06.079Z,46.19
2023-05-10T13:53:23.447Z,46.36
2023-05-10T13:55:40.677Z,45.16
2023-05-10T13:57:57.914Z,47.18
2023-05-10T14:00:15.225Z,45.86
2023-05-10T14:02:32.407Z,48.77
2023-05-10T14:04:49.735Z,47.60
2023-05-10T14:07:07.006Z,44.27
2023-05-10T14:09:24.292Z,44.37
2023-05-10T14:11:41.250Z,47.20
2023-05-10T14:13:58.578Z,45.54
2023-05-10T14:16:15.906Z,46.91
2023-05-10T14:18:33.273Z,47.58
2023-05-10T14:20:50.658Z,45.44
2023-05-10T14:23:11.670Z,49.03
2023-05-10T14:25:29.273Z,48.66
2023-05-10T14:27:46.477Z,50.08
2023-05-10T14:30:03.821Z,48.66
2023-05-10T14:32:20.913Z,50.08
2023-05-10T14:34:38.301Z,49.11
2023-05-10T14:36:55.579Z,47.20
2023-05-10T14:39:13.290Z,49.97
2023-05-10T14:41:31.541Z,49.41
2023-05-10T14:43:49.725Z,48.64
2023-05-10T14:46:06.787Z,45.85
2023-05-10T14:48:24.097Z,45.77
2023-05-10T14:50:41.320Z,46.80
2023-05-10T14:52:58.611Z,49.01
2023-05-10T14:55:15.941Z,47.34
2023-05-10T14:57:33.844Z,48.16
2023-05-10T14:59:51.150Z,49.01
2023-05-10T15:02:09.123Z,48.11
2023-05-10T15:04:28.396Z,45.73
2023-05-10T15:06:46.440Z,48.81
2023-05-10T15:09:03.706Z,47.94
2023-05-10T15:11:21.039Z,45.21
2023-05-10T15:13:39.268Z,45.48
2023-05-10T15:15:56.601Z,45.93
2023-05-10T15:18:13.980Z,46.11
2023-05-10T15:20:31.377Z,46.29
2023-05-10T15:22:48.717Z,47.85
2023-05-10T15:25:07.046Z,46.72
2023-05-10T15:27:24.326Z,47.67
2023-05-10T15:29:41.374Z,47.18
2023-05-10T15:31:58.588Z,44.00
2023-05-10T15:34:15.892Z,45.45
2023-05-10T15:36:33.199Z,47.55
2023-05-10T15:38:50.490Z,43.44
2023-05-10T15:41:07.794Z,42.41
2023-05-10T15:43:25.063Z,45.00
2023-05-10T15:45:42.335Z,45.26
2023-05-10T15:47:59.681Z,43.22
2023-05-10T15:50:16.951Z,44.20
2023-05-10T15:52:34.209Z,44.14
2023-05-10T15:54:51.474Z,43.12
2023-05-10T15:57:08.771Z,47.42
2023-05-10T15:59:26.055Z,47.53
2023-05-10T16:01:43.782Z,45.54
2023-05-10T16:04:01.046Z,48.19
2023-05-10T16:06:18.233Z,45.89
2023-05-10T16:08:35.219Z,45.96
2023-05-10T16:10:53.186Z,46.48
2023-05-10T16:13:11.514Z,45.97
2023-05-10T16:15:28.553Z,47.06
2023-05-10T16:17:46.875Z,44.77
2023-05-10T16:20:04.311Z,45.70
2023-05-10T16:22:22.550Z,44.94
2023-05-10T16:24:39.476Z,44.08
2023-05-10T16:26:56.439Z,43.73
2023-05-10T16:29:13.772Z,43.05
2023-05-10T16:31:31.076Z,47.17
2023-05-10T16:33:49.321Z,44.06
2023-05-10T16:36:06.985Z,47.09
2023-05-10T16:38:25.749Z,44.29
2023-05-10T16:40:43.028Z,47.27
2023-05-10T16:43:01.217Z,43.59
2023-05-10T16:45:18.731Z,46.07
2023-05-10T16:47:36.100Z,47.52
2023-05-10T16:49:53.095Z,46.74
2023-05-10T16:52:09.976Z,45.13
2023-05-10T16:54:27.281Z,47.83
2023-05-10T16:56:45.044Z,45.50
2023-05-10T16:59:03.344Z,45.92
2023-05-10T17:01:20.316Z,47.21
2023-05-10T17:03:37.629Z,50.53
2023-05-10T17:05:55.149Z,49.16
2023-05-10T17:08:13.449Z,48.09
2023-05-10T17:10:30.666Z,47.72
2023-05-10T17:12:48.319Z,49.69
2023-05-10T17:15:05.664Z,48.55
2023-05-10T17:17:23.059Z,48.16
2023-05-10T17:19:40.771Z,49.05
2023-05-10T17:21:58.086Z,49.63
2023-05-10T17:24:15.287Z,48.98
2023-05-10T17:26:32.543Z,49.69
2023-05-10T17:28:49.811Z,50.15
2023-05-10T17:31:07.103Z,49.98
2023-05-10T17:33:24.422Z,51.85
2023-05-10T17:35:42.096Z,51.82
2023-05-10T17:38:00.337Z,51.92
2023-05-10T17:40:17.796Z,52.00
2023-05-10T17:42:35.469Z,51.47
2023-05-10T17:44:52.757Z,50.85
2023-05-10T17:47:09.991Z,53.14
2023-05-10T17:49:27.023Z,53.24
2023-05-10T17:51:44.347Z,55.83
2023-05-10T17:54:01.667Z,55.69
2023-05-10T17:56:18.602Z,54.64
2023-05-10T17:58:35.906Z,56.61
2023-05-10T18:00:53.021Z,57.12
2023-05-10T18:03:10.362Z,57.82
2023-05-10T18:05:27.830Z,58.26
2023-05-10T18:07:45.190Z,56.12
2023-05-10T18:10:02.272Z,57.75
2023-05-10T18:12:19.551Z,58.70
2023-05-10T18:14:40.908Z,57.61
2023-05-10T18:16:58.898Z,57.23
2023-05-10T18:19:15.859Z,56.60
2023-05-10T18:21:32.799Z,60.07
2023-05-10T18:23:53.489Z,62.01
2023-05-10T18:26:10.764Z,61.84
2023-05-10T18:28:27.847Z,63.52
2023-05-10T18:30:45.075Z,63.40
2023-05-10T18:33:03.098Z,64.17
2023-05-10T18:35:20.607Z,64.83
2023-05-10T18:37:38.196Z,64.63
2023-05-10T18:39:55.322Z,65.70
2023-05-10T18:42:12.641Z,66.48
2023-05-10T18:44:29.748Z,67.37
2023-05-10T18:46:47.376Z,67.62
2023-05-10T18:49:05.818Z,67.89
2023-05-10T18:51:23.113Z,68.42
2023-05-10T18:53:41.384Z,68.74
2023-05-10T18:55:58.748Z,69.55
2023-05-10T18:58:16.681Z,70.45
2023-05-10T19:00:33.646Z,71.02
2023-05-10T19:02:50.957Z,72.26
2023-05-10T19:05:08.917Z,72.39
2023-05-10T19:07:26.212Z,71.55
2023-05-10T19:09:43.896Z,72.15
2023-05-10T19:12:01.243Z,73.01
2023-05-10T19:14:18.622Z,73.40
2023-05-10T19:16:36.998Z,73.33
2023-05-10T19:18:57.466Z,74.28
2023-05-10T19:21:18.663Z,75.98
2023-05-10T19:23:36.118Z,75.64
2023-05-10T19:25:53.483Z,75.97
2023-05-10T19:28:11.451Z,75.61
2023-05-10T19:30:30.691Z,74.35
2023-05-10T19:32:48.494Z,75.15
2023-05-10T19:35:05.663Z,74.59
2023-05-10T19:37:22.804Z,74.88
2023-05-10T19:39:40.165Z,76.23
2023-05-10T19:41:57.672Z,75.21
2023-05-10T19:44:15.867Z,76.45
2023-05-10T19:46:33.681Z,75.68
2023-05-10T19:48:51.040Z,77.71
2023-05-10T19:51:10.280Z,77.62
2023-05-10T19:53:27.709Z,77.94
2023-05-10T19:55:45.078Z,78.03
2023-05-10T19:58:02.155Z,77.45
2023-05-10T20:00:19.313Z,78.67
2023-05-10T20:02:36.708Z,78.89
2023-05-10T20:04:54.999Z,77.23
2023-05-10T20:07:12.322Z,78.86
2023-05-10T20:09:29.891Z,78.07
2023-05-10T20:11:48.305Z,79.47
2023-05-10T20:14:06.539Z,79.00
2023-05-10T20:16:25.915Z,77.61
2023-05-10T20:18:43.820Z,78.88
2023-05-10T20:21:01.273Z,79.51
2023-05-10T20:23:19.572Z,79.22
2023-05-10T20:25:36.860Z,79.09
2023-05-10T20:27:54.243Z,79.62
2023-05-10T20:30:11.539Z,80.35
2023-05-10T20:32:29.962Z,79.88
2023-05-10T20:34:48.260Z,79.39
2023-05-10T20:37:05.469Z,80.05
2023-05-10T20:39:22.723Z,80.41
2023-05-10T20:41:40.260Z,80.05
2023-05-10T20:43:57.350Z,80.23
2023-05-10T20:46:14.463Z,80.20
2023-05-10T20:48:31.902Z,81.05
2023-05-10T20:50:48.925Z,80.39
2023-05-10T20:53:06.691Z,81.10
2023-05-10T20:55:23.620Z,81.14
2023-05-10T20:57:40.480Z,81.07
2023-05-10T21:00:00.185Z,81.16
2023-05-10T21:02:17.515Z,81.12
2023-05-10T21:04:34.672Z,81.54
2023-05-10T21:06:51.977Z,81.95
2023-05-10T21:09:09.279Z,81.60
2023-05-10T21:11:26.549Z,81.82
2023-05-10T21:13:43.899Z,81.96
2023-05-10T21:16:01.419Z,82.36
2023-05-10T21:18:19.803Z,82.53
2023-05-10T21:20:37.359Z,82.97
2023-05-10T21:22:55.812Z,82.79
2023-05-10T21:25:13.131Z,83.54
2023-05-10T21:27:30.724Z,83.31
2023-05-10T21:29:47.832Z,82.98
2023-05-10T21:32:05.219Z,83.27
2023-05-10T21:34:22.247Z,83.49
2023-05-10T21:36:40.152Z,83.34
2023-05-10T21:38:57.441Z,83.16
2023-05-10T21:41:14.455Z,83.48
2023-05-10T21:43:31.511Z,83.95
2023-05-10T21:45:48.836Z,83.66
2023-05-10T21:48:07.281Z,84.15
2023-05-10T21:50:24.770Z,84.25
2023-05-10T21:52:43.117Z,84.44
2023-05-10T21:55:00.387Z,84.24
2023-05-10T21:57:17.499Z,83.89
2023-05-10T21:59:34.855Z,84.32
2023-05-10T22:01:52.073Z,84.35
2023-05-10T22:04:09.383Z,84.51
2023-05-10T22:06:27.016Z,84.77
2023-05-10T22:08:45.282Z,84.53
2023-05-10T22:11:03.279Z,84.87
2023-05-10T22:13:21.647Z,84.63
2023-05-10T22:15:39.356Z,84.85
2023-05-10T22:17:56.803Z,85.02
2023-05-10T22:20:13.792Z,85.20
2023-05-10T22:22:31.519Z,84.88
2023-05-10T22:24:48.799Z,85.11
2023-05-10T22:27:06.168Z,85.30
2023-05-10T22:29:23.796Z,85.15
2023-05-10T22:31:41.324Z,85.53
2023-05-10T22:33:59.684Z,85.08
2023-05-10T22:36:17.399Z,85.52
2023-05-10T22:38:35.275Z,86.69
2023-05-10T22:40:52.972Z,85.39
2023-05-10T22:43:10.306Z,86.50
2023-05-10T22:45:27.645Z,86.56
2023-05-10T22:47:45.577Z,86.03
2023-05-10T22:50:03.298Z,86.64
2023-05-10T22:52:21.495Z,86.45
2023-05-10T22:54:39.761Z,86.34
2023-05-10T22:56:57.007Z,86.16
2023-05-10T22:59:14.305Z,86.34
2023-05-10T23:01:31.590Z,85.51
2023-05-10T23:03:49.032Z,85.57
2023-05-10T23:06:06.278Z,86.28
2023-05-10T23:08:23.616Z,85.95
2023-05-10T23:10:41.243Z,86.04
2023-05-10T23:12:58.965Z,86.08
2023-05-10T23:15:16.899Z,86.99
2023-05-10T23:17:33.902Z,86.15
2023-05-10T23:19:51.298Z,86.17
2023-05-10T23:22:08.610Z,86.87
2023-05-10T23:24:25.868Z,86.14
2023-05-10T23:26:43.064Z,86.72
2023-05-10T23:29:00.319Z,86.57
2023-05-10T23:31:17.871Z,87.91
2023-05-10T23:33:35.918Z,86.25
2023-05-10T23:35:53.231Z,86.15
2023-05-10T23:38:10.950Z,86.18
2023-05-10T23:40:27.849Z,87.28
2023-05-10T23:42:45.826Z,86.43
2023-05-10T23:45:03.156Z,86.47
2023-05-10T23:47:20.523Z,86.62
2023-05-10T23:49:37.843Z,86.85
2023-05-10T23:51:55.144Z,86.99
2023-05-10T23:54:12.388Z,86.54
2023-05-10T23:56:29.609Z,87.58
2023-05-10T23:58:46.925Z,87.69
